Temp: 18.3°C   Baro: 1015.7mb
  Wind: 2.9mph   Dir: W (271°)
  Rain: 0.6mm (0.0mm/hr)
  Solar: 594W/m2  Hum: 63%
 
Bath Spa Weather Station Historical Data
Daily Summary for August 04, 2020 Units:  Metric    English   Both
Daily Weekly Monthly Yearly Custom
  High: Low: Average:
Temperature: 20.3 °C 8.3 °C 14.7 °C
Dew Point: 14.2 °C 6.2 °C 10.6 °C
Humidity: 88% 65.4% 77%
Wind Speed: 16.7km/h 0km/h 5.6km/h
Wind Gust: 29km/h - -
Wind- - SW
Pressure: 1018.2 hPa 1012.4 hPa -
Precipitation: 0 mm    
Historical Graphs
 
 
Tabular Data for August 04, 2020
Time Temperature Dew Point Pressure Wind Wind Speed Wind Gust Humidity Rainfall Rate (Hourly) solar
00:04 11.9 °C 7.7 °C 1018.2 hPa Calm     75.2% 0 mm 0 W/m2
00:09 11.9 °C 7.8 °C 1018.2 hPa Calm     76% 0 mm 0 W/m2
00:14 11.8 °C 7.7 °C 1018.2 hPa Calm     76% 0 mm 0 W/m2
00:19 11.8 °C 7.7 °C 1018.2 hPa Calm     76% 0 mm 0 W/m2
00:24 11.7 °C 7.6 °C 1018.2 hPa Calm     76% 0 mm 0 W/m2
00:29 11.6 °C 7.5 °C 1018.2 hPa Calm     76% 0 mm 0 W/m2
00:34 11.4 °C 7.3 °C 1018.2 hPa Calm     76% 0 mm 0 W/m2
00:39 11.4 °C 7.3 °C 1018.2 hPa Calm     76% 0 mm 0 W/m2
00:44 11.3 °C 7.2 °C 1018.2 hPa Calm     76% 0 mm 0 W/m2
00:49 11.1 °C 7 °C 1018.2 hPa Calm     76% 0 mm 0 W/m2
00:54 10.8 °C 6.7 °C 1018.2 hPa Calm     76% 0 mm 0 W/m2
00:59 10.7 °C 6.7 °C 1018.2 hPa Calm     77% 0 mm 0 W/m2
01:04 10.5 °C 6.7 °C 1018.2 hPa Calm     77.6% 0 mm 0 W/m2
01:09 10.5 °C 6.8 °C 1018.2 hPa Calm     78% 0 mm 0 W/m2
01:14 10.4 °C 6.9 °C 1018.2 hPa Calm     78.8% 0 mm 0 W/m2
01:19 10.4 °C 6.9 °C 1018.2 hPa Calm     79% 0 mm 0 W/m2
01:24 10.4 °C 6.9 °C 1018.2 hPa Calm     79% 0 mm 0 W/m2
01:29 10.4 °C 6.9 °C 1017.8 hPa Calm     79% 0 mm 0 W/m2
01:34 10.4 °C 6.9 °C 1017.8 hPa Calm     79% 0 mm 0 W/m2
01:39 10.3 °C 6.9 °C 1017.8 hPa Calm     79.8% 0 mm 0 W/m2
01:44 10.2 °C 6.9 °C 1017.8 hPa Calm     80% 0 mm 0 W/m2
01:49 10.1 °C 6.8 °C 1017.8 hPa Calm     80% 0 mm 0 W/m2
01:54 10.1 °C 6.8 °C 1017.8 hPa Calm     80% 0 mm 0 W/m2
01:59 9.9 °C 6.7 °C 1017.8 hPa Calm     80.4% 0 mm 0 W/m2
02:04 9.9 °C 6.8 °C 1017.8 hPa Calm     81% 0 mm 0 W/m2
02:09 9.8 °C 6.7 °C 1017.8 hPa Calm     81% 0 mm 0 W/m2
02:14 9.7 °C 6.7 °C 1017.8 hPa Calm     81.4% 0 mm 0 W/m2
02:19 9.6 °C 6.7 °C 1017.8 hPa Calm     82% 0 mm 0 W/m2
02:24 9.6 °C 6.7 °C 1017.8 hPa Calm     82% 0 mm 0 W/m2
02:29 9.6 °C 6.7 °C 1017.8 hPa Calm     82% 0 mm 0 W/m2
02:34 9.4 °C 6.7 °C 1017.8 hPa Calm     82.4% 0 mm 0 W/m2
02:39 9.3 °C 6.7 °C 1017.8 hPa Calm     83% 0 mm 0 W/m2
02:44 9.3 °C 6.6 °C 1017.8 hPa Calm     83% 0 mm 0 W/m2
02:49 9.2 °C 6.4 °C 1017.5 hPa Calm     83% 0 mm 0 W/m2
02:54 9.1 °C 6.4 °C 1017.5 hPa Calm     83.4% 0 mm 0 W/m2
02:59 9 °C 6.4 °C 1017.5 hPa Calm     84% 0 mm 0 W/m2
03:04 8.9 °C 6.3 °C 1017.5 hPa Calm     84% 0 mm 0 W/m2
03:09 8.9 °C 6.3 °C 1017.5 hPa Calm     84% 0 mm 0 W/m2
03:14 8.9 °C 6.3 °C 1017.5 hPa Calm     84% 0 mm 0 W/m2
03:19 8.9 °C 6.3 °C 1017.5 hPa Calm     84% 0 mm 0 W/m2
03:24 8.9 °C 6.3 °C 1017.5 hPa Calm     84% 0 mm 0 W/m2
03:34 8.9 °C 6.5 °C 1017.5 hPa Calm     85% 0 mm 0 W/m2
03:39 8.9 °C 6.6 °C 1017.5 hPa Calm     85% 0 mm 0 W/m2
03:44 9 °C 6.6 °C 1017.5 hPa Calm     85% 0 mm 0 W/m2
03:49 8.9 °C 6.6 °C 1017.5 hPa Calm     85% 0 mm 0 W/m2
03:54 9 °C 6.6 °C 1017.5 hPa Calm     85% 0 mm 0 W/m2
03:59 9.1 °C 6.7 °C 1017.5 hPa Calm     85% 0 mm 0 W/m2
04:04 9.1 °C 6.7 °C 1017.5 hPa Calm     85% 0 mm 0 W/m2
04:09 9.2 °C 6.8 °C 1017.5 hPa Calm     85% 0 mm 0 W/m2
04:14 9.2 °C 6.8 °C 1017.5 hPa Calm     85% 0 mm 0 W/m2
04:19 9.1 °C 6.7 °C 1017.5 hPa Calm     85% 0 mm 0 W/m2
04:24 9.2 °C 6.8 °C 1017.5 hPa Calm     85% 0 mm 0 W/m2
04:29 9.1 °C 6.7 °C 1017.2 hPa Calm     85% 0 mm 0 W/m2
04:34 9.2 °C 6.8 °C 1017.2 hPa Calm     85% 0 mm 0 W/m2
04:39 9.2 °C 6.8 °C 1017.2 hPa Calm     85% 0 mm 0 W/m2
04:44 9.2 °C 6.8 °C 1017.2 hPa Calm     85% 0 mm 0 W/m2
04:49 9.2 °C 6.8 °C 1017.2 hPa Calm     85% 0 mm 0 W/m2
04:54 9.1 °C 6.7 °C 1017.2 hPa Calm     85% 0 mm 0 W/m2
04:59 9 °C 6.6 °C 1017.2 hPa Calm     85% 0 mm 0 W/m2
05:04 8.9 °C 6.5 °C 1017.2 hPa Calm     85% 0 mm 0 W/m2
05:09 8.8 °C 6.4 °C 1017.2 hPa Calm     85% 0 mm 0 W/m2
05:14 8.9 °C 6.5 °C 1017.2 hPa Calm     85% 0 mm 0 W/m2
05:19 8.8 °C 6.6 °C 1017.2 hPa Calm     85.6% 0 mm 0 W/m2
05:24 8.8 °C 6.6 °C 1017.2 hPa Calm     86% 0 mm 0 W/m2
05:29 8.7 °C 6.5 °C 1017.2 hPa Calm     86% 0 mm 0 W/m2
05:34 8.7 °C 6.5 °C 1017.2 hPa Calm     86% 0 mm 0 W/m2
05:39 8.7 °C 6.5 °C 1017.2 hPa Calm     86% 0 mm 0 W/m2
05:44 8.7 °C 6.4 °C 1017.2 hPa Calm     86% 0 mm 5 W/m2
05:49 8.6 °C 6.4 °C 1017.2 hPa Calm     86% 0 mm 5 W/m2
05:54 8.6 °C 6.3 °C 1016.8 hPa Calm     86% 0 mm 7 W/m2
05:59 8.5 °C 6.3 °C 1017.2 hPa Calm     86.2% 0 mm 7 W/m2
06:04 8.4 °C 6.4 °C 1016.8 hPa Calm     87% 0 mm 9 W/m2
06:09 8.4 °C 6.2 °C 1016.8 hPa Calm     86.2% 0 mm 11 W/m2
06:14 8.4 °C 6.4 °C 1017.2 hPa Calm     87% 0 mm 12 W/m2
06:19 8.4 °C 6.4 °C 1017.2 hPa Calm     87% 0 mm 14 W/m2
06:24 8.3 °C 6.3 °C 1017.2 hPa Calm     87% 0 mm 16 W/m2
06:29 8.3 °C 6.3 °C 1017.2 hPa Calm     87% 0 mm 18 W/m2
06:34 8.3 °C 6.3 °C 1017.2 hPa Calm     87% 0 mm 21 W/m2
06:39 8.3 °C 6.3 °C 1017.2 hPa Calm     87% 0 mm 23 W/m2
06:44 8.5 °C 6.5 °C 1017.2 hPa Calm     87.3% 0 mm 25 W/m2
06:49 8.6 °C 6.7 °C 1017.2 hPa Calm     88% 0 mm 28 W/m2
06:54 8.7 °C 6.8 °C 1017.2 hPa Calm     88% 0 mm 33 W/m2
06:59 8.9 °C 7 °C 1017.2 hPa Calm     88% 0 mm 40 W/m2
07:04 9.1 °C 7.2 °C 1017.2 hPa Calm     88% 0 mm 58 W/m2
07:09 9.3 °C 7.3 °C 1017.2 hPa Calm     88% 0 mm 79 W/m2
07:14 9.5 °C 7.6 °C 1017.2 hPa Calm     88% 0 mm 81 W/m2
07:19 9.7 °C 7.8 °C 1016.8 hPa Calm     88% 0 mm 105 W/m2
07:24 10 °C 8.1 °C 1016.8 hPa Calm     88% 0 mm 134 W/m2
07:29 10.2 °C 8.3 °C 1016.8 hPa Calm     88% 0 mm 141 W/m2
07:34 10.4 °C 8.4 °C 1016.8 hPa Calm     87.4% 0 mm 174 W/m2
07:39 10.7 °C 8.6 °C 1016.8 hPa Calm     87% 0 mm 181 W/m2
07:44 11 °C 8.9 °C 1016.8 hPa Calm     87% 0 mm 227 W/m2
07:49 11.3 °C 9 °C 1016.8 hPa Calm     86.2% 0 mm 144 W/m2
07:54 11.6 °C 9.3 °C 1016.8 hPa Calm     86% 0 mm 118 W/m2
07:59 11.8 °C 9.4 °C 1016.8 hPa Calm     85.3% 0 mm 116 W/m2
08:04 12 °C 9.4 °C 1016.8 hPa Calm     84.2% 0 mm 100 W/m2
08:09 12.2 °C 9.3 °C 1016.8 hPa Calm     82.8% 0 mm 234 W/m2
08:14 12.4 °C 9.3 °C 1016.8 hPa Calm     81.6% 0 mm 330 W/m2
08:19 13.1 °C 9.7 °C 1016.8 hPa Calm     79.8% 0 mm 283 W/m2
08:24 13.6 °C 9.7 °C 1017.2 hPa Calm     77.6% 0 mm 220 W/m2
08:29 13.7 °C 9.4 °C 1017.2 hPa Calm     75.8% 0 mm 213 W/m2
08:34 13.7 °C 9.3 °C 1017.2 hPa Calm     74.8% 0 mm 192 W/m2
08:39 13.7 °C 9.2 °C 1017.2 hPa Calm     74% 0 mm 193 W/m2
08:44 13.8 °C 9.2 °C 1017.2 hPa Calm     73.6% 0 mm 195 W/m2
08:49 13.9 °C 9.2 °C 1017.2 hPa Calm     73% 0 mm 172 W/m2
08:54 14.1 °C 9.2 °C 1016.8 hPa Calm     72.6% 0 mm 186 W/m2
08:59 14.2 °C 9.2 °C 1016.8 hPa Calm     71.8% 0 mm 246 W/m2
09:04 14.3 °C 9.1 °C 1016.8 hPa Calm     71% 0 mm 253 W/m2
09:09 14.5 °C 9.3 °C 1016.8 hPa WNW 1 km/h 4.8 km/h 71% 0 mm 285 W/m2
09:14 14.8 °C 9.6 °C 1016.8 hPa WNW 1.9 km/h 6.4 km/h 71% 0 mm 401 W/m2
09:19 15.1 °C 9.9 °C 1016.8 hPa WNW 1 km/h 4.8 km/h 70.8% 0 mm 274 W/m2
09:24 15.3 °C 10.1 °C 1016.8 hPa WNW 1.9 km/h 4.8 km/h 71% 0 mm 160 W/m2
09:29 15.4 °C 10.2 °C 1017.2 hPa WSW 2.4 km/h 8 km/h 71% 0 mm 185 W/m2
09:34 15.4 °C 10.2 °C 1017.2 hPa WSW 4.5 km/h 11.3 km/h 71% 0 mm 223 W/m2
09:39 15.6 °C 10.3 °C 1017.2 hPa SW 4 km/h 8 km/h 71% 0 mm 221 W/m2
09:44 15.6 °C 10.3 °C 1016.8 hPa SW 6.4 km/h 11.3 km/h 70.8% 0 mm 211 W/m2
09:49 15.6 °C 10 °C 1016.8 hPa SW 4.8 km/h 11.3 km/h 69.6% 0 mm 281 W/m2
09:54 15.8 °C 10 °C 1016.8 hPa WSW 4.7 km/h 12.9 km/h 68.6% 0 mm 302 W/m2
09:59 15.9 °C 9.9 °C 1016.8 hPa SW 5.3 km/h 11.3 km/h 67.8% 0 mm 281 W/m2
10:04 15.9 °C 9.7 °C 1016.8 hPa WSW 4 km/h 11.3 km/h 66.8% 0 mm 232 W/m2
10:09 15.8 °C 9.6 °C 1016.8 hPa WSW 5.3 km/h 12.9 km/h 66.4% 0 mm 220 W/m2
10:14 15.9 °C 9.8 °C 1016.8 hPa WSW 5.3 km/h 9.7 km/h 67.2% 0 mm 188 W/m2
10:19 15.8 °C 10.2 °C 1017.2 hPa WSW 9.7 km/h 16.1 km/h 69% 0 mm 186 W/m2
10:24 15.8 °C 10.3 °C 1017.2 hPa West 10.8 km/h 16.1 km/h 70% 0 mm 176 W/m2
10:29 15.7 °C 10.2 °C 1017.2 hPa West 7.6 km/h 14.5 km/h 70% 0 mm 211 W/m2
10:34 15.7 °C 10.1 °C 1017.2 hPa West 5.1 km/h 12.9 km/h 69.8% 0 mm 218 W/m2
10:39 15.7 °C 10.2 °C 1017.2 hPa West 7.1 km/h 14.5 km/h 70% 0 mm 188 W/m2
10:44 15.7 °C 10.2 °C 1017.2 hPa WSW 7.2 km/h 16.1 km/h 70% 0 mm 188 W/m2
10:49 15.7 °C 10.2 °C 1017.2 hPa West 7.7 km/h 17.7 km/h 70% 0 mm 207 W/m2
10:54 15.6 °C 10.1 °C 1016.8 hPa WSW 8.2 km/h 16.1 km/h 70% 0 mm 225 W/m2
10:59 15.7 °C 10.2 °C 1017.2 hPa SW 7.1 km/h 12.9 km/h 70% 0 mm 230 W/m2
11:04 15.6 °C 10.1 °C 1017.2 hPa WSW 8.9 km/h 12.9 km/h 70% 0 mm 244 W/m2
11:09 15.7 °C 10.2 °C 1016.8 hPa SSW 5.1 km/h 16.1 km/h 70% 0 mm 292 W/m2
11:14 15.6 °C 10.1 °C 1016.8 hPa SW 10.8 km/h 16.1 km/h 70% 0 mm 294 W/m2
11:19 15.6 °C 10.1 °C 1016.8 hPa WSW 9.2 km/h 19.3 km/h 70% 0 mm 241 W/m2
11:24 15.7 °C 10.2 °C 1016.8 hPa WSW 9 km/h 12.9 km/h 70% 0 mm 267 W/m2
11:29 15.8 °C 10.3 °C 1016.8 hPa WSW 5.5 km/h 17.7 km/h 70% 0 mm 381 W/m2
11:34 15.7 °C 10.2 °C 1016.5 hPa WSW 13.2 km/h 19.3 km/h 70% 0 mm 392 W/m2
11:39 15.8 °C 10.3 °C 1016.5 hPa SW 7.9 km/h 14.5 km/h 70% 0 mm 260 W/m2
11:44 16 °C 10.5 °C 1016.5 hPa SW 6 km/h 12.9 km/h 70% 0 mm 313 W/m2
11:49 16.1 °C 10.6 °C 1016.5 hPa WSW 7.7 km/h 12.9 km/h 70% 0 mm 345 W/m2
11:54 16.2 °C 10.6 °C 1016.5 hPa SSW 9.8 km/h 19.3 km/h 69.4% 0 mm 383 W/m2
11:59 16.3 °C 10.7 °C 1016.8 hPa WSW 11.3 km/h 20.9 km/h 69.3% 0 mm 248 W/m2
12:04 16.2 °C 10.5 °C 1016.8 hPa SW 9.7 km/h 17.7 km/h 69% 0 mm 248 W/m2
12:09 16.2 °C 10.7 °C 1016.8 hPa West 9 km/h 17.7 km/h 69.6% 0 mm 244 W/m2
12:14 16.3 °C 10.8 °C 1016.5 hPa SW 7.1 km/h 14.5 km/h 70% 0 mm 287 W/m2
12:19 16.6 °C 11 °C 1016.5 hPa SW 2.7 km/h 14.5 km/h 69.6% 0 mm 308 W/m2
12:24 16.7 °C 11 °C 1016.5 hPa West 10.9 km/h 17.7 km/h 69% 0 mm 295 W/m2
12:29 16.6 °C 11 °C 1016.5 hPa WSW 9.2 km/h 14.5 km/h 69.4% 0 mm 216 W/m2
12:34 16.6 °C 11.1 °C 1016.5 hPa WSW 8.2 km/h 16.1 km/h 69.8% 0 mm 148 W/m2
12:39 16.6 °C 11.1 °C 1016.5 hPa SW 7.4 km/h 14.5 km/h 70% 0 mm 139 W/m2
12:44 16.6 °C 11.2 °C 1016.5 hPa WSW 4.5 km/h 12.9 km/h 70.2% 0 mm 137 W/m2
12:49 16.7 °C 11.1 °C 1016.5 hPa SW 7.7 km/h 16.1 km/h 69.4% 0 mm 179 W/m2
12:54 16.7 °C 10.9 °C 1016.5 hPa SW 7.4 km/h 16.1 km/h 69% 0 mm 281 W/m2
12:59 16.7 °C 10.9 °C 1016.5 hPa WSW 10.9 km/h 17.7 km/h 68.6% 0 mm 301 W/m2
13:04 16.7 °C 10.7 °C 1016.5 hPa SW 10.6 km/h 17.7 km/h 67.8% 0 mm 318 W/m2
13:09 16.9 °C 10.7 °C 1016.1 hPa SW 7.2 km/h 14.5 km/h 67.2% 0 mm 338 W/m2
13:14 17.1 °C 10.9 °C 1016.1 hPa SW 8.2 km/h 17.7 km/h 67% 0 mm 367 W/m2
13:19 17.1 °C 10.7 °C 1016.1 hPa SW 11.1 km/h 22.5 km/h 66.2% 0 mm 348 W/m2
13:24 17.1 °C 10.9 °C 1016.1 hPa SW 15.9 km/h 19.3 km/h 67% 0 mm 309 W/m2
13:29 17.2 °C 10.9 °C 1016.1 hPa SW 10.1 km/h 17.7 km/h 67% 0 mm 388 W/m2
13:34 17.2 °C 11.2 °C 1016.1 hPa WSW 12.1 km/h 27.4 km/h 68% 0 mm 394 W/m2
13:39 17.3 °C 11.3 °C 1016.1 hPa WSW 9 km/h 16.1 km/h 68% 0 mm 373 W/m2
13:44 17.3 °C 11.3 °C 1016.1 hPa WSW 12.4 km/h 19.3 km/h 68% 0 mm 373 W/m2
13:49 17.6 °C 11.6 °C 1016.1 hPa WSW 7.2 km/h 16.1 km/h 68% 0 mm 387 W/m2
13:54 17.7 °C 11.7 °C 1016.1 hPa WSW 9 km/h 16.1 km/h 67.8% 0 mm 352 W/m2
13:59 17.7 °C 11.6 °C 1015.8 hPa WSW 6.8 km/h 16.1 km/h 67.8% 0 mm 425 W/m2
14:04 17.7 °C 11.7 °C 1015.8 hPa SW 9.7 km/h 14.5 km/h 68% 0 mm 475 W/m2
14:09 17.9 °C 11.9 °C 1015.5 hPa South 9.3 km/h 25.7 km/h 68% 0 mm 457 W/m2
14:14 18.1 °C 12.2 °C 1015.5 hPa SSW 6.9 km/h 25.7 km/h 68.8% 0 mm 476 W/m2
14:19 18.2 °C 12.2 °C 1015.1 hPa SW 8.9 km/h 22.5 km/h 68% 0 mm 524 W/m2
14:24 18.3 °C 12.4 °C 1015.1 hPa SW 6.4 km/h 12.9 km/h 68.2% 0 mm 603 W/m2
14:29 18.7 °C 12.4 °C 1015.1 hPa SSW 10 km/h 19.3 km/h 66.8% 0 mm 775 W/m2
14:34 19 °C 12.3 °C 1015.1 hPa WSW 13.5 km/h 19.3 km/h 65.4% 0 mm 879 W/m2
14:39 19.1 °C 12.6 °C 1015.1 hPa WSW 13.8 km/h 22.5 km/h 66.2% 0 mm 814 W/m2
14:44 18.9 °C 12.7 °C 1015.1 hPa SW 10.6 km/h 20.9 km/h 67.4% 0 mm 621 W/m2
14:49 18.9 °C 13.1 °C 1015.1 hPa SW 10.3 km/h 19.3 km/h 68.8% 0 mm 640 W/m2
14:54 19.3 °C 13.5 °C 1015.1 hPa SSW 10.9 km/h 20.9 km/h 68.8% 0 mm 835 W/m2
14:59 19.4 °C 13.7 °C 1014.8 hPa SSW 9.5 km/h 20.9 km/h 69% 0 mm 868 W/m2
15:04 20.1 °C 14.1 °C 1014.8 hPa SSW 7.2 km/h 19.3 km/h 68.3% 0 mm 905 W/m2
15:09 20.2 °C 13.8 °C 1014.8 hPa SW 9.3 km/h 20.9 km/h 67% 0 mm 905 W/m2
15:14 20.1 °C 13.9 °C 1014.8 hPa SSW 8.2 km/h 20.9 km/h 67.8% 0 mm 831 W/m2
15:19 20.3 °C 13.9 °C 1014.8 hPa SW 13.2 km/h 22.5 km/h 66.6% 0 mm 798 W/m2
15:24 19.7 °C 13.6 °C 1014.8 hPa SW 13.4 km/h 24.1 km/h 67.8% 0 mm 715 W/m2
15:29 19.5 °C 13.6 °C 1014.4 hPa SW 16.1 km/h 24.1 km/h 68.6% 0 mm 271 W/m2
15:34 19.4 °C 13.6 °C 1014.4 hPa SSW 8.9 km/h 22.5 km/h 69% 0 mm 316 W/m2
15:39 19.3 °C 13.6 °C 1014.4 hPa SW 11.4 km/h 29 km/h 69.2% 0 mm 360 W/m2
15:44 19.3 °C 13.6 °C 1014.4 hPa WSW 16.7 km/h 29 km/h 69.4% 0 mm 499 W/m2
15:49 19.6 °C 13.8 °C 1014.4 hPa SW 9.2 km/h 19.3 km/h 69.3% 0 mm 446 W/m2
15:54 19.6 °C 13.8 °C 1014.4 hPa WSW 10.8 km/h 16.1 km/h 69% 0 mm 308 W/m2
15:59 19.6 °C 13.9 °C 1014.4 hPa WSW 13.2 km/h 19.3 km/h 69.8% 0 mm 315 W/m2
16:04 19.5 °C 13.9 °C 1014.4 hPa WSW 11.3 km/h 20.9 km/h 70% 0 mm 251 W/m2
16:09 19.5 °C 13.9 °C 1014.4 hPa WSW 10.9 km/h 19.3 km/h 70% 0 mm 209 W/m2
16:14 19.6 °C 13.8 °C 1014.4 hPa SSW 11.3 km/h 19.3 km/h 69.2% 0 mm 221 W/m2
16:19 19.4 °C 13.7 °C 1014.1 hPa SW 10.3 km/h 19.3 km/h 69.2% 0 mm 216 W/m2
16:24 19.4 °C 13.7 °C 1014.1 hPa SW 10 km/h 22.5 km/h 69.6% 0 mm 202 W/m2
16:29 19.4 °C 13.7 °C 1014.1 hPa SW 11.9 km/h 22.5 km/h 69.4% 0 mm 195 W/m2
16:34 19.3 °C 13.7 °C 1014.1 hPa WSW 10.3 km/h 19.3 km/h 69.8% 0 mm 220 W/m2
16:39 19.4 °C 13.8 °C 1014.1 hPa West 9.7 km/h 19.3 km/h 70.2% 0 mm 204 W/m2
16:44 19.6 °C 14.2 °C 1014.1 hPa SW 10.1 km/h 17.7 km/h 71% 0 mm 265 W/m2
16:49 19.6 °C 14.2 °C 1014.1 hPa SW 9.7 km/h 24.1 km/h 71% 0 mm 357 W/m2
16:54 19.6 °C 14.2 °C 1014.1 hPa WSW 12.2 km/h 22.5 km/h 71% 0 mm 315 W/m2
16:59 19.6 °C 14.2 °C 1014.1 hPa WSW 10.3 km/h 22.5 km/h 71% 0 mm 206 W/m2
17:04 19.6 °C 14.2 °C 1014.1 hPa SW 11.3 km/h 22.5 km/h 71% 0 mm 171 W/m2
17:09 19.5 °C 14.1 °C 1013.8 hPa SSW 9.5 km/h 20.9 km/h 71% 0 mm 176 W/m2
17:14 19.4 °C 14 °C 1013.8 hPa SW 10.8 km/h 20.9 km/h 71% 0 mm 148 W/m2
17:19 19.3 °C 14.1 °C 1013.8 hPa SSW 11.9 km/h 24.1 km/h 71.8% 0 mm 118 W/m2
17:24 19.2 °C 14.1 °C 1013.8 hPa SW 11.6 km/h 29 km/h 72.6% 0 mm 134 W/m2
17:29 19.2 °C 14.1 °C 1013.8 hPa WSW 10.9 km/h 22.5 km/h 72.2% 0 mm 141 W/m2
17:34 19.2 °C 14.2 °C 1013.8 hPa SW 8.7 km/h 22.5 km/h 73% 0 mm 130 W/m2
17:39 19.1 °C 14.1 °C 1013.8 hPa SSW 12.2 km/h 19.3 km/h 73% 0 mm 141 W/m2
17:44 19.1 °C 14.1 °C 1013.4 hPa SW 13.2 km/h 20.9 km/h 73% 0 mm 162 W/m2
17:49 18.9 °C 14 °C 1013.4 hPa SSW 14.2 km/h 20.9 km/h 73% 0 mm 130 W/m2
17:54 18.9 °C 14 °C 1013.4 hPa SW 13.5 km/h 24.1 km/h 73% 0 mm 109 W/m2
17:59 18.8 °C 13.9 °C 1013.8 hPa SW 12.9 km/h 22.5 km/h 73% 0 mm 125 W/m2
18:04 18.8 °C 13.9 °C 1013.4 hPa WSW 10 km/h 19.3 km/h 73% 0 mm 102 W/m2
18:09 18.9 °C 14 °C 1013.4 hPa WSW 8.9 km/h 17.7 km/h 73% 0 mm 111 W/m2
18:14 18.8 °C 13.9 °C 1013.4 hPa SSW 12.2 km/h 19.3 km/h 73% 0 mm 111 W/m2
18:19 18.8 °C 14 °C 1013.4 hPa SW 8 km/h 14.5 km/h 73.4% 0 mm 123 W/m2
18:24 18.7 °C 13.9 °C 1013.4 hPa SSW 11.6 km/h 24.1 km/h 73.6% 0 mm 125 W/m2
18:29 18.8 °C 14.1 °C 1013.4 hPa SSW 7.2 km/h 14.5 km/h 73.8% 0 mm 151 W/m2
18:34 18.8 °C 13.9 °C 1013.1 hPa SSW 14.8 km/h 19.3 km/h 73% 0 mm 127 W/m2
18:39 18.8 °C 14 °C 1013.1 hPa SSW 8.9 km/h 17.7 km/h 73.4% 0 mm 105 W/m2
18:44 18.8 °C 14 °C 1013.1 hPa SSW 7.7 km/h 22.5 km/h 73.6% 0 mm 97 W/m2
18:49 18.7 °C 13.9 °C 1013.1 hPa SSW 11.9 km/h 22.5 km/h 73.8% 0 mm 97 W/m2
18:54 18.6 °C 13.9 °C 1013.1 hPa SW 8.9 km/h 17.7 km/h 74% 0 mm 53 W/m2
18:59 18.6 °C 13.8 °C 1013.1 hPa SW 9.3 km/h 20.9 km/h 74% 0 mm 69 W/m2
19:04 18.3 °C 13.7 °C 1013.1 hPa SW 13.2 km/h 27.4 km/h 74% 0 mm 69 W/m2
19:09 18.3 °C 13.8 °C 1013.1 hPa SW 6.9 km/h 17.7 km/h 75% 0 mm 77 W/m2
19:14 18.3 °C 13.8 °C 1013.1 hPa SSW 6.8 km/h 20.9 km/h 75% 0 mm 76 W/m2
19:19 18.2 °C 13.7 °C 1013.1 hPa SSW 7.9 km/h 20.9 km/h 75% 0 mm 67 W/m2
19:24 18.2 °C 13.7 °C 1013.1 hPa SW 11.3 km/h 17.7 km/h 75% 0 mm 77 W/m2
19:29 18.1 °C 13.6 °C 1013.1 hPa SW 9.8 km/h 20.9 km/h 75% 0 mm 77 W/m2
19:34 17.9 °C 13.6 °C 1013.1 hPa SSW 7.6 km/h 20.9 km/h 75.6% 0 mm 42 W/m2
19:39 17.9 °C 13.6 °C 1013.1 hPa WSW 11.3 km/h 16.1 km/h 76% 0 mm 39 W/m2
19:44 17.8 °C 13.5 °C 1013.1 hPa SW 6.3 km/h 14.5 km/h 76% 0 mm 35 W/m2
19:49 17.8 °C 13.5 °C 1013.1 hPa SSW 9.7 km/h 16.1 km/h 76% 0 mm 28 W/m2
19:54 17.7 °C 13.4 °C 1013.1 hPa SSW 8.4 km/h 16.1 km/h 76% 0 mm 28 W/m2
19:59 17.7 °C 13.4 °C 1013.1 hPa SSW 6.3 km/h 12.9 km/h 76% 0 mm 21 W/m2
20:04 17.6 °C 13.4 °C 1013.1 hPa SW 8 km/h 14.5 km/h 76.4% 0 mm 16 W/m2
20:09 17.4 °C 13.4 °C 1013.1 hPa SW 6.6 km/h 16.1 km/h 77.4% 0 mm 9 W/m2
20:14 17.3 °C 13.5 °C 1013.1 hPa SSW 5.6 km/h 17.7 km/h 78.6% 0 mm 7 W/m2
20:19 17.2 °C 13.5 °C 1013.1 hPa SW 10.5 km/h 17.7 km/h 79% 0 mm 7 W/m2
20:24 17.1 °C 13.5 °C 1013.1 hPa SW 10.6 km/h 19.3 km/h 79.6% 0 mm 7 W/m2
20:29 17.1 °C 13.6 °C 1012.8 hPa SSW 6.9 km/h 17.7 km/h 80% 0 mm 5 W/m2
20:34 16.9 °C 13.4 °C 1012.8 hPa SSW 7.9 km/h 16.1 km/h 80% 0 mm 5 W/m2
20:39 16.9 °C 13.4 °C 1012.8 hPa SSW 7.1 km/h 17.7 km/h 80% 0 mm 0 W/m2
20:44 16.9 °C 13.4 °C 1012.8 hPa South 7.2 km/h 14.5 km/h 80% 0 mm 0 W/m2
20:49 16.9 °C 13.4 °C 1012.8 hPa SSW 9.7 km/h 20.9 km/h 80% 0 mm 0 W/m2
20:54 16.9 °C 13.4 °C 1012.8 hPa SW 10.9 km/h 20.9 km/h 80% 0 mm 0 W/m2
20:59 16.9 °C 13.4 °C 1012.8 hPa WSW 8 km/h 22.5 km/h 80% 0 mm 0 W/m2
21:03 16.9 °C 13.4 °C 1012.8 hPa SW 12.9 km/h 24.1 km/h 80% 0 mm 0 W/m2
21:09 16.8 °C 13.3 °C 1012.8 hPa SSW 10.5 km/h 17.7 km/h 80% 0 mm 0 W/m2
21:14 16.8 °C 13.3 °C 1013.1 hPa SW 12.2 km/h 16.1 km/h 80% 0 mm 0 W/m2
21:19 16.8 °C 13.3 °C 1013.1 hPa SW 10.3 km/h 19.3 km/h 80% 0 mm 0 W/m2
21:24 16.8 °C 13.3 °C 1013.1 hPa SW 11.9 km/h 16.1 km/h 80% 0 mm 0 W/m2
21:29 16.8 °C 13.3 °C 1013.1 hPa SW 7.9 km/h 17.7 km/h 80% 0 mm 0 W/m2
21:34 16.8 °C 13.3 °C 1013.1 hPa SW 9.5 km/h 20.9 km/h 80% 0 mm 0 W/m2
21:39 16.8 °C 13.4 °C 1013.1 hPa WSW 6.8 km/h 17.7 km/h 80.8% 0 mm 0 W/m2
21:44 16.8 °C 13.5 °C 1012.8 hPa SW 8.2 km/h 20.9 km/h 81% 0 mm 0 W/m2
21:49 16.7 °C 13.4 °C 1013.1 hPa SW 9 km/h 20.9 km/h 81% 0 mm 0 W/m2
21:54 16.7 °C 13.4 °C 1013.1 hPa SW 8.7 km/h 16.1 km/h 81% 0 mm 0 W/m2
21:59 16.7 °C 13.4 °C 1013.1 hPa SSW 7.4 km/h 17.7 km/h 81% 0 mm 0 W/m2
22:04 16.6 °C 13.4 °C 1013.1 hPa SSW 11.9 km/h 20.9 km/h 81.4% 0 mm 0 W/m2
22:09 16.6 °C 13.4 °C 1013.1 hPa SSW 10.6 km/h 20.9 km/h 81.8% 0 mm 0 W/m2
22:14 16.6 °C 13.5 °C 1013.1 hPa SSW 7.2 km/h 19.3 km/h 82% 0 mm 0 W/m2
22:19 16.6 °C 13.5 °C 1012.8 hPa SW 10.5 km/h 19.3 km/h 82% 0 mm 0 W/m2
22:24 16.6 °C 13.5 °C 1012.8 hPa SW 7.7 km/h 22.5 km/h 82% 0 mm 0 W/m2
22:29 16.5 °C 13.4 °C 1012.8 hPa SSW 7.9 km/h 14.5 km/h 82% 0 mm 0 W/m2
22:34 16.5 °C 13.4 °C 1012.8 hPa SW 6.4 km/h 14.5 km/h 82% 0 mm 0 W/m2
22:39 16.5 °C 13.4 °C 1013.1 hPa WSW 6.4 km/h 14.5 km/h 82% 0 mm 0 W/m2
22:44 16.5 °C 13.4 °C 1012.8 hPa SW 4.8 km/h 12.9 km/h 82% 0 mm 0 W/m2
22:49 16.4 °C 13.3 °C 1013.1 hPa West 4 km/h 9.7 km/h 82% 0 mm 0 W/m2
22:54 16.4 °C 13.3 °C 1012.8 hPa WSW 7.4 km/h 12.9 km/h 82.2% 0 mm 0 W/m2
22:59 16.4 °C 13.5 °C 1012.8 hPa SW 4.5 km/h 14.5 km/h 83% 0 mm 0 W/m2
23:04 16.4 °C 13.5 °C 1012.8 hPa SSW 6.1 km/h 14.5 km/h 83% 0 mm 0 W/m2
23:09 16.4 °C 13.5 °C 1012.8 hPa SW 10.6 km/h 17.7 km/h 83% 0 mm 0 W/m2
23:14 16.4 °C 13.5 °C 1012.8 hPa SW 9.7 km/h 20.9 km/h 83% 0 mm 0 W/m2
23:19 16.3 °C 13.4 °C 1012.8 hPa SSW 10.6 km/h 20.9 km/h 83% 0 mm 0 W/m2
23:23 16.3 °C 13.4 °C 1012.8 hPa SW 11.3 km/h 17.7 km/h 83% 0 mm 0 W/m2
23:29 16.3 °C 13.4 °C 1012.8 hPa SW 5.1 km/h 17.7 km/h 83% 0 mm 0 W/m2
23:34 16.3 °C 13.4 °C 1012.8 hPa SW 8.5 km/h 14.5 km/h 83% 0 mm 0 W/m2
23:39 16.3 °C 13.4 °C 1012.8 hPa SSW 9 km/h 19.3 km/h 83% 0 mm 0 W/m2
23:44 16.4 °C 13.5 °C 1012.4 hPa SW 9.7 km/h 22.5 km/h 83% 0 mm 0 W/m2
23:49 16.4 °C 13.5 °C 1012.8 hPa SW 9.5 km/h 19.3 km/h 83% 0 mm 0 W/m2
23:54 16.4 °C 13.5 °C 1012.8 hPa SSW 12.6 km/h 22.5 km/h 83% 0 mm 0 W/m2
23:59 16.4 °C 13.5 °C 1012.8 hPa SSW 9 km/h 14.5 km/h 83% 0 mm 0 W/m2
Bath Spa Weather
Compliments of Weather Underground - 2 mb